createdAt,value
2018-02-06T00:02:10.721Z,45.57
2018-02-06T00:04:37.128Z,49.97
2018-02-06T00:07:03.472Z,42.33
2018-02-06T00:09:29.815Z,44.07
2018-02-06T00:11:56.200Z,44.90
2018-02-06T00:14:22.556Z,36.37
2018-02-06T00:16:48.900Z,34.70
2018-02-06T00:19:15.276Z,36.67
2018-02-06T00:21:41.624Z,33.20
2018-02-06T00:24:08.005Z,35.07
2018-02-06T00:26:34.388Z,33.60
2018-02-06T00:29:00.724Z,38.53
2018-02-06T00:31:27.088Z,34.37
2018-02-06T00:33:53.504Z,37.33
2018-02-06T00:36:19.845Z,34.20
2018-02-06T00:38:46.193Z,38.60
2018-02-06T00:41:12.549Z,35.50
2018-02-06T00:43:38.929Z,34.27
2018-02-06T00:46:05.314Z,31.40
2018-02-06T00:48:31.669Z,32.27
2018-02-06T00:50:58.069Z,35.77
2018-02-06T00:53:24.434Z,36.30
2018-02-06T00:55:50.792Z,32.77
2018-02-06T00:58:17.197Z,36.53
2018-02-06T01:00:43.565Z,31.60
2018-02-06T01:03:09.937Z,34.93
2018-02-06T01:05:36.345Z,33.60
2018-02-06T01:08:02.696Z,34.83
2018-02-06T01:10:29.056Z,33.50
2018-02-06T01:12:55.452Z,38.20
2018-02-06T01:15:21.800Z,36.77
2018-02-06T01:17:48.148Z,34.30
2018-02-06T01:20:14.536Z,35.10
2018-02-06T01:22:40.889Z,37.53
2018-02-06T01:25:07.268Z,34.83
2018-02-06T01:27:33.628Z,35.03
2018-02-06T01:29:59.984Z,35.37
2018-02-06T01:32:26.348Z,35.93
2018-02-06T01:34:52.773Z,37.73
2018-02-06T01:37:19.133Z,39.67
2018-02-06T01:39:45.476Z,39.40
2018-02-06T01:42:11.844Z,38.87
2018-02-06T01:44:38.200Z,41.00
2018-02-06T01:47:04.610Z,38.27
2018-02-06T01:49:30.966Z,39.03
2018-02-06T01:51:57.322Z,37.70
2018-02-06T01:54:23.740Z,33.37
2018-02-06T01:56:50.080Z,34.47
2018-02-06T01:59:16.471Z,36.20
2018-02-06T02:01:42.900Z,35.63
2018-02-06T02:04:09.280Z,32.70
2018-02-06T02:06:35.640Z,32.77
2018-02-06T02:09:02.208Z,35.47
2018-02-06T02:11:28.603Z,32.77
2018-02-06T02:13:55.012Z,34.07
2018-02-06T02:16:21.529Z,33.90
2018-02-06T02:18:48.156Z,35.77
2018-02-06T02:21:14.512Z,37.47
2018-02-06T02:23:48.940Z,34.17
2018-02-06T02:26:15.269Z,38.87
2018-02-06T02:28:41.668Z,36.53
2018-02-06T02:31:08.020Z,32.63
2018-02-06T02:33:34.364Z,35.63
2018-02-06T02:36:00.714Z,34.20
2018-02-06T02:38:27.116Z,33.10
2018-02-06T02:40:53.487Z,33.97
2018-02-06T04:40:22.036Z,43.17
2018-02-06T04:42:48.396Z,39.90
2018-02-06T04:45:14.903Z,46.00
2018-02-06T04:47:41.437Z,46.90
2018-02-06T04:50:07.820Z,88.23
2018-02-06T04:52:34.333Z,126.47
2018-02-06T04:55:00.816Z,114.73
2018-02-06T04:57:27.168Z,81.83
2018-02-06T04:59:53.729Z,71.20
2018-02-06T05:02:20.193Z,74.13
2018-02-06T05:04:46.587Z,98.97
2018-02-06T05:07:12.980Z,93.77
2018-02-06T05:09:39.336Z,74.57
2018-02-06T05:12:05.770Z,57.77
2018-02-06T05:14:32.464Z,57.10
2018-02-06T05:16:58.868Z,60.67
2018-02-06T05:19:25.580Z,63.13
2018-02-06T05:21:52.054Z,65.87
2018-02-06T05:24:18.441Z,71.40
2018-02-06T05:26:44.867Z,68.13
2018-02-06T05:29:11.249Z,68.10
2018-02-06T05:31:37.627Z,68.27
2018-02-06T05:34:03.978Z,67.20
2018-02-06T05:36:30.365Z,70.80
2018-02-06T05:38:56.716Z,72.47
2018-02-06T05:41:23.060Z,70.73
2018-02-06T05:43:49.478Z,66.13
2018-02-06T05:46:16.008Z,65.30
2018-02-06T05:48:42.369Z,60.70
2018-02-06T05:51:08.756Z,62.80
2018-02-06T05:53:35.237Z,61.13
2018-02-06T05:56:01.601Z,61.33
2018-02-06T05:58:27.980Z,63.33
2018-02-06T06:00:54.333Z,62.67
2018-02-06T06:03:20.717Z,91.23
2018-02-06T06:05:47.095Z,85.27
2018-02-06T06:08:13.448Z,86.23
2018-02-06T06:10:39.837Z,86.93
2018-02-06T06:13:06.241Z,87.97
2018-02-06T06:15:32.644Z,107.63
2018-02-06T06:17:59.065Z,107.97
2018-02-06T06:20:25.449Z,143.17
2018-02-06T06:22:52.849Z,108.80
2018-02-06T06:25:19.721Z,111.63
2018-02-06T06:27:47.053Z,117.10
2018-02-06T06:30:13.632Z,116.93
2018-02-06T06:32:41.548Z,127.93
2018-02-06T06:35:07.934Z,126.97
2018-02-06T06:37:34.296Z,132.13
2018-02-06T06:40:00.653Z,101.23
2018-02-06T06:42:27.065Z,116.83
2018-02-06T06:44:53.429Z,101.40
2018-02-06T06:47:19.768Z,113.77
2018-02-06T06:49:46.185Z,122.47
2018-02-06T06:52:12.761Z,120.93
2018-02-06T06:54:39.604Z,106.80
2018-02-06T06:57:06.017Z,103.30
2018-02-06T06:59:32.503Z,119.57
2018-02-06T07:01:58.886Z,118.90
2018-02-06T07:04:25.284Z,102.07
2018-02-06T07:06:51.694Z,94.33
2018-02-06T07:11:51.253Z,84.43
2018-02-06T07:14:17.832Z,88.73
2018-02-06T07:16:44.312Z,71.67
2018-02-06T07:19:10.758Z,54.90
2018-02-06T07:21:37.304Z,53.97
2018-02-06T07:24:04.209Z,75.70
2018-02-06T07:26:31.359Z,92.37
2018-02-06T07:28:58.062Z,64.73
2018-02-06T07:31:24.637Z,70.07
2018-02-06T07:33:51.080Z,63.43
2018-02-06T07:36:17.748Z,56.77
2018-02-06T07:38:44.892Z,49.77
2018-02-06T07:41:11.236Z,65.40
2018-02-06T07:43:37.612Z,66.87
2018-02-06T07:46:04.014Z,53.23
2018-02-06T07:48:30.402Z,49.70
2018-02-06T07:50:56.946Z,56.60
2018-02-06T07:53:23.532Z,48.23
2018-02-06T07:55:49.894Z,45.90
2018-02-06T07:58:16.426Z,49.13
2018-02-06T08:00:42.828Z,51.57
2018-02-06T08:03:09.261Z,48.50
2018-02-06T08:05:35.641Z,45.70
2018-02-06T08:08:02.053Z,47.97
2018-02-06T08:10:28.437Z,45.23
2018-02-06T08:12:54.790Z,44.70
2018-02-06T08:15:21.200Z,47.57
2018-02-06T08:17:47.613Z,53.50
2018-02-06T08:20:14.053Z,61.30
2018-02-06T08:22:40.421Z,61.77
2018-02-06T08:25:06.786Z,67.27
2018-02-06T08:27:33.209Z,77.80
2018-02-06T08:29:59.540Z,80.37
2018-02-06T08:32:26.064Z,85.53
2018-02-06T08:34:52.955Z,87.90
2018-02-06T08:37:19.589Z,83.37
2018-02-06T08:39:45.991Z,89.50
2018-02-06T08:42:12.525Z,74.07
2018-02-06T08:44:38.934Z,87.17
2018-02-06T08:47:05.535Z,88.43
2018-02-06T08:49:32.011Z,89.57
2018-02-06T08:51:58.400Z,84.00
2018-02-06T08:54:24.792Z,94.20
2018-02-06T08:56:51.189Z,90.33
2018-02-06T08:59:17.526Z,90.93
2018-02-06T09:01:44.025Z,87.67
2018-02-06T09:04:10.506Z,83.47
2018-02-06T09:06:37.105Z,88.97
2018-02-06T09:09:03.608Z,84.87
2018-02-06T09:11:30.158Z,87.13
2018-02-06T09:13:56.532Z,87.90
2018-02-06T09:16:22.877Z,83.43
2018-02-06T09:19:01.665Z,93.60
2018-02-06T09:21:34.219Z,89.80
2018-02-06T09:24:00.565Z,94.37
2018-02-06T09:26:26.932Z,97.30
2018-02-06T09:28:53.348Z,105.20
2018-02-06T09:31:19.722Z,103.07
2018-02-06T09:33:46.382Z,105.17
2018-02-06T09:36:13.000Z,111.37
2018-02-06T09:38:39.405Z,90.30
2018-02-06T09:41:06.157Z,94.10
2018-02-06T09:43:32.572Z,89.27
2018-02-06T09:45:58.920Z,82.30
2018-02-06T09:48:25.256Z,72.73
2018-02-06T09:50:51.606Z,87.03
2018-02-06T09:53:18.214Z,90.63
2018-02-06T09:55:44.589Z,84.50
2018-02-06T09:58:10.981Z,76.73
2018-02-06T10:00:37.445Z,74.90
2018-02-06T10:03:03.937Z,66.47
2018-02-06T10:05:30.305Z,52.43
2018-02-06T10:07:56.669Z,51.73
2018-02-06T10:10:23.073Z,42.10
2018-02-06T10:12:49.421Z,43.93
2018-02-06T10:15:15.807Z,40.83
2018-02-06T10:17:42.290Z,33.23
2018-02-06T10:20:08.809Z,31.73
2018-02-06T10:22:35.205Z,29.30
2018-02-06T10:25:01.633Z,34.70
2018-02-06T10:27:28.021Z,31.23
2018-02-06T10:29:54.422Z,27.73
2018-02-06T10:32:20.824Z,31.20
2018-02-06T10:34:47.213Z,29.33
2018-02-06T10:37:13.560Z,29.37
2018-02-06T10:39:39.940Z,24.83
2018-02-06T10:42:06.540Z,28.27
2018-02-06T10:44:32.884Z,22.43
2018-02-06T10:46:59.236Z,21.43
2018-02-06T10:49:25.717Z,29.07
2018-02-06T10:51:52.063Z,24.50
2018-02-06T10:54:18.421Z,30.00
2018-02-06T10:56:44.897Z,28.73
2018-02-06T10:59:11.280Z,30.23
2018-02-06T11:01:37.660Z,24.00
2018-02-06T11:04:04.036Z,21.73
2018-02-06T11:06:30.564Z,22.70
2018-02-06T11:08:56.933Z,23.93
2018-02-06T11:11:23.443Z,23.63
2018-02-06T11:13:49.847Z,24.07
2018-02-06T11:16:16.203Z,24.63
2018-02-06T11:18:42.597Z,20.53
2018-02-06T11:21:09.227Z,23.17
2018-02-06T11:23:35.660Z,22.43
2018-02-06T11:26:02.021Z,21.27
2018-02-06T11:28:28.573Z,21.70
2018-02-06T11:30:54.956Z,20.97
2018-02-06T11:33:21.398Z,19.43
2018-02-06T11:35:47.759Z,22.07
2018-02-06T11:38:14.225Z,18.93
2018-02-06T11:40:40.729Z,20.47
2018-02-06T11:43:07.192Z,20.57
2018-02-06T11:45:33.625Z,19.80
2018-02-06T11:48:00.021Z,17.97
2018-02-06T11:50:26.420Z,21.67
2018-02-06T11:52:52.810Z,20.67
2018-02-06T11:55:19.165Z,17.10
2018-02-06T11:57:45.632Z,19.37
2018-02-06T12:00:12.081Z,22.27
2018-02-06T12:02:38.429Z,20.30
2018-02-06T12:05:04.904Z,19.87
2018-02-06T12:07:31.281Z,28.43
2018-02-06T12:09:57.761Z,24.43
2018-02-06T12:12:25.100Z,18.83
2018-02-06T12:14:51.641Z,20.10
2018-02-06T12:17:18.528Z,23.47
2018-02-06T12:19:45.164Z,21.40
2018-02-06T12:22:11.696Z,17.00
2018-02-06T12:24:38.081Z,21.13
2018-02-06T12:27:04.501Z,18.40
2018-02-06T12:29:30.868Z,19.97
2018-02-06T12:31:58.001Z,15.70
2018-02-06T12:34:24.717Z,16.93
2018-02-06T12:36:51.111Z,16.70
2018-02-06T12:39:17.476Z,18.83
2018-02-06T12:41:43.848Z,19.50
2018-02-06T12:44:10.221Z,15.60
2018-02-06T12:46:36.665Z,19.87
2018-02-06T12:49:03.713Z,16.43
2018-02-06T12:51:30.162Z,19.83
2018-02-06T12:53:56.641Z,17.50
2018-02-06T12:56:23.115Z,17.00
2018-02-06T12:58:49.469Z,21.73
2018-02-06T13:01:15.868Z,18.67
2018-02-06T13:03:42.223Z,16.40
2018-02-06T13:06:08.784Z,14.77
2018-02-06T13:08:35.283Z,16.10
2018-02-06T13:11:01.662Z,15.83
2018-02-06T13:13:28.052Z,15.37
2018-02-06T13:15:54.588Z,15.33
2018-02-06T13:18:21.136Z,15.57
2018-02-06T13:20:47.969Z,16.23
2018-02-06T13:23:14.476Z,16.57
2018-02-06T13:25:40.830Z,15.03
2018-02-06T13:28:07.236Z,14.00
2018-02-06T13:30:33.680Z,14.50
2018-02-06T13:33:00.032Z,14.30
2018-02-06T13:35:26.654Z,14.27
2018-02-06T13:37:53.104Z,16.10
2018-02-06T13:40:19.467Z,15.90
2018-02-06T13:42:45.809Z,13.97
2018-02-06T13:45:12.236Z,13.23
2018-02-06T13:47:38.642Z,12.03
2018-02-06T13:50:05.027Z,12.30
2018-02-06T13:52:31.597Z,14.70
2018-02-06T13:54:58.080Z,15.97
2018-02-06T13:57:36.573Z,15.80
2018-02-06T14:00:03.006Z,18.03
2018-02-06T14:02:29.513Z,18.93
2018-02-06T14:04:55.925Z,14.37
2018-02-06T14:07:22.308Z,14.43
2018-02-06T14:09:48.661Z,13.13
2018-02-06T14:12:15.089Z,13.23
2018-02-06T14:14:41.491Z,17.60
2018-02-06T14:17:07.860Z,15.27
2018-02-06T14:19:34.282Z,13.40
2018-02-06T14:22:00.757Z,15.23
2018-02-06T14:24:27.648Z,15.43
2018-02-06T14:26:54.133Z,14.30
2018-02-06T14:29:20.545Z,14.27
2018-02-06T14:31:46.906Z,14.07
2018-02-06T14:34:13.394Z,15.97
2018-02-06T14:36:39.860Z,15.97
2018-02-06T14:39:06.293Z,14.93
2018-02-06T14:41:32.706Z,14.57
2018-02-06T14:43:59.083Z,14.67
2018-02-06T14:46:25.543Z,15.90
2018-02-06T14:48:52.219Z,16.33
2018-02-06T14:51:18.646Z,16.30
2018-02-06T14:53:46.133Z,20.53
2018-02-06T14:56:13.076Z,17.97
2018-02-06T14:58:39.731Z,17.10
2018-02-06T15:01:06.243Z,16.17
2018-02-06T15:03:32.593Z,19.87
2018-02-06T15:05:58.936Z,27.93
2018-02-06T15:08:25.569Z,34.63
2018-02-06T15:10:52.116Z,29.10
2018-02-06T15:13:18.663Z,28.33
2018-02-06T15:15:45.077Z,19.77
2018-02-06T15:18:11.424Z,27.17
2018-02-06T15:20:37.777Z,28.93
2018-02-06T15:23:04.190Z,40.13
2018-02-06T15:25:30.866Z,63.17
2018-02-06T15:27:57.391Z,64.87
2018-02-06T15:30:23.866Z,65.83
2018-02-06T15:32:50.235Z,59.67
2018-02-06T15:35:16.617Z,97.77
2018-02-06T15:37:43.054Z,131.23
2018-02-06T15:40:09.466Z,115.33
2018-02-06T15:42:36.103Z,118.97
2018-02-06T15:45:02.705Z,75.40
2018-02-06T15:47:29.070Z,51.23
2018-02-06T15:49:55.608Z,46.37
2018-02-06T15:52:22.920Z,41.13
2018-02-06T15:54:51.373Z,34.43
2018-02-06T15:57:18.689Z,59.73
2018-02-06T15:59:45.081Z,70.23
2018-02-06T16:02:11.596Z,66.47
2018-02-06T16:04:37.978Z,66.13
2018-02-06T16:07:04.324Z,141.87
2018-02-06T16:09:30.761Z,195.90
2018-02-06T16:11:57.169Z,110.83
2018-02-06T16:14:23.591Z,65.10
2018-02-06T16:16:50.106Z,32.97
2018-02-06T16:19:16.469Z,32.73
2018-02-06T16:21:42.845Z,33.30
2018-02-06T16:24:09.260Z,32.40
2018-02-06T16:26:35.626Z,33.47
2018-02-06T16:29:02.679Z,39.00
2018-02-06T16:31:29.093Z,29.67
2018-02-06T16:33:55.587Z,30.13
2018-02-06T16:36:21.982Z,35.37
2018-02-06T16:38:49.080Z,38.20
2018-02-06T16:41:15.668Z,33.00
2018-02-06T16:43:42.078Z,31.37
2018-02-06T16:46:08.556Z,35.67
2018-02-06T16:48:35.001Z,38.43
2018-02-06T16:51:01.359Z,46.80
2018-02-06T16:53:27.775Z,49.67
2018-02-06T16:55:55.004Z,53.20
2018-02-06T16:58:21.370Z,65.77
2018-02-06T17:00:47.810Z,61.17
2018-02-06T17:03:14.202Z,61.77
2018-02-06T17:05:40.575Z,50.13
2018-02-06T17:08:06.981Z,55.07
2018-02-06T17:10:33.329Z,55.07
2018-02-06T17:12:59.735Z,46.97
2018-02-06T17:15:26.141Z,47.93
2018-02-06T17:17:52.495Z,41.33
2018-02-06T17:20:18.933Z,45.83
2018-02-06T17:22:45.338Z,46.13
2018-02-06T17:25:11.712Z,39.00
2018-02-06T17:27:38.125Z,46.40
2018-02-06T17:30:04.571Z,48.03
2018-02-06T17:32:31.030Z,42.73
2018-02-06T17:34:57.490Z,39.83
2018-02-06T17:37:23.848Z,44.90
2018-02-06T17:39:50.257Z,51.93
2018-02-06T17:42:16.704Z,58.37
2018-02-06T17:44:43.083Z,50.03
2018-02-06T17:47:09.468Z,46.93
2018-02-06T17:49:36.762Z,39.27
2018-02-06T17:52:03.147Z,42.87
2018-02-06T17:54:29.669Z,40.00
2018-02-06T17:56:56.077Z,45.60
2018-02-06T17:59:22.471Z,43.33
2018-02-06T18:01:48.890Z,43.17
2018-02-06T18:04:15.340Z,42.07
2018-02-06T18:06:42.653Z,47.53
2018-02-06T18:09:09.688Z,47.60
2018-02-06T18:11:36.137Z,56.20
2018-02-06T18:14:02.529Z,54.00
2018-02-06T18:16:28.922Z,59.47
2018-02-06T18:18:56.237Z,57.83
2018-02-06T18:21:22.690Z,60.93
2018-02-06T18:23:50.679Z,51.63
2018-02-06T18:26:17.602Z,67.47
2018-02-06T18:28:44.671Z,56.07
2018-02-06T18:31:12.710Z,55.37
2018-02-06T18:33:39.237Z,55.50
2018-02-06T18:36:05.649Z,52.60
2018-02-06T18:38:32.046Z,51.30
2018-02-06T18:40:58.451Z,51.67
2018-02-06T18:43:24.961Z,54.30
2018-02-06T18:45:52.340Z,49.50
2018-02-06T18:48:18.777Z,46.20
2018-02-06T18:50:45.179Z,43.83
2018-02-06T18:53:11.584Z,51.77
2018-02-06T18:55:37.978Z,59.97
2018-02-06T18:58:05.286Z,62.33
2018-02-06T19:00:31.703Z,56.53
2018-02-06T19:02:58.090Z,60.37
2018-02-06T19:05:25.409Z,53.70
2018-02-06T19:07:51.807Z,45.13
2018-02-06T19:10:18.184Z,48.73
2018-02-06T19:12:46.127Z,47.23
2018-02-06T19:15:12.545Z,49.90
2018-02-06T19:17:39.554Z,45.10
2018-02-06T19:20:06.922Z,44.03
2018-02-06T19:22:34.071Z,45.87
2018-02-06T19:25:00.521Z,48.73
2018-02-06T19:27:27.035Z,50.07
2018-02-06T19:29:54.351Z,48.77
2018-02-06T19:32:21.049Z,52.30
2018-02-06T19:34:47.434Z,53.20
2018-02-06T19:37:13.815Z,51.37
2018-02-06T19:39:41.249Z,52.03
2018-02-06T19:42:08.443Z,49.27
2018-02-06T19:44:34.810Z,49.27
2018-02-06T19:47:02.801Z,54.80
2018-02-06T19:49:29.267Z,55.37
2018-02-06T19:51:55.651Z,67.33
2018-02-06T19:54:22.822Z,74.53
2018-02-06T19:56:49.798Z,101.63
2018-02-06T19:59:16.185Z,104.93
2018-02-06T20:01:43.528Z,95.43
2018-02-06T20:04:10.011Z,72.67
2018-02-06T20:06:36.412Z,67.23
2018-02-06T20:09:05.814Z,65.60
2018-02-06T20:11:32.197Z,63.00
2018-02-06T20:13:58.567Z,60.97
2018-02-06T20:16:25.040Z,57.27
2018-02-06T20:18:51.413Z,57.70
2018-02-06T20:21:17.802Z,56.93
2018-02-06T20:23:44.218Z,59.90
2018-02-06T20:26:10.577Z,57.27
2018-02-06T20:28:36.943Z,59.10
2018-02-06T20:31:04.253Z,71.40
2018-02-06T20:33:30.621Z,140.10
2018-02-06T20:35:56.973Z,177.73
2018-02-06T20:38:23.385Z,180.90
2018-02-06T20:40:49.735Z,201.23
2018-02-06T20:43:16.135Z,223.87
2018-02-06T20:45:42.527Z,226.50
2018-02-06T20:48:08.940Z,222.57
2018-02-06T20:50:35.365Z,215.97
2018-02-06T20:53:01.793Z,224.03
2018-02-06T20:55:28.154Z,213.70
2018-02-06T20:57:54.521Z,192.53
2018-02-06T21:00:20.981Z,202.97
2018-02-06T21:02:47.325Z,196.03
2018-02-06T21:05:13.681Z,202.03
2018-02-06T21:07:40.127Z,194.60
2018-02-06T21:10:06.501Z,196.20
2018-02-06T21:12:32.865Z,205.70
2018-02-06T21:14:59.318Z,197.47
2018-02-06T21:17:25.750Z,190.37
2018-02-06T21:19:52.312Z,184.37
2018-02-06T21:22:18.802Z,152.33
2018-02-06T21:24:45.178Z,155.27
2018-02-06T21:27:11.537Z,154.63
2018-02-06T21:29:38.047Z,123.77
2018-02-06T21:32:04.451Z,115.60
2018-02-06T21:34:30.814Z,110.87
2018-02-06T21:36:57.191Z,97.47
2018-02-06T21:39:23.577Z,79.20
2018-02-06T21:41:49.931Z,83.63
2018-02-06T21:44:16.357Z,76.07
2018-02-06T21:46:42.697Z,71.27
2018-02-06T21:49:09.148Z,58.20
2018-02-06T21:51:35.590Z,51.37
2018-02-06T21:54:02.246Z,61.23
2018-02-06T21:56:28.633Z,62.33
2018-02-06T21:58:55.045Z,60.97
2018-02-06T22:01:21.488Z,60.77
2018-02-06T22:03:47.901Z,58.27
2018-02-06T22:06:14.312Z,54.13
2018-02-06T22:08:40.697Z,55.27
2018-02-06T22:11:07.050Z,51.43
2018-02-06T22:13:33.457Z,48.37
2018-02-06T22:16:00.041Z,51.83
2018-02-06T22:18:26.404Z,46.40
2018-02-06T22:20:52.816Z,42.20
2018-02-06T22:23:19.205Z,41.03
2018-02-06T22:25:45.544Z,39.50
2018-02-06T22:28:11.938Z,41.63
2018-02-06T22:30:38.355Z,41.57
2018-02-06T22:33:04.748Z,52.67
2018-02-06T22:35:31.166Z,115.50
2018-02-06T22:37:57.533Z,96.30
2018-02-06T22:40:23.881Z,86.50
2018-02-06T22:42:50.303Z,86.73
2018-02-06T22:45:16.694Z,86.23
2018-02-06T22:47:43.065Z,79.10
2018-02-06T22:50:09.454Z,78.77
2018-02-06T22:52:35.856Z,83.17
2018-02-06T22:55:02.223Z,78.70
2018-02-06T22:57:28.598Z,81.93
2018-02-06T22:59:54.997Z,74.03
2018-02-06T23:02:21.353Z,71.53
2018-02-06T23:04:47.717Z,68.17
2018-02-06T23:07:14.139Z,70.17
2018-02-06T23:09:40.524Z,72.03
2018-02-06T23:12:06.861Z,68.47
2018-02-06T23:14:33.293Z,58.90
2018-02-06T23:16:59.702Z,60.47
2018-02-06T23:19:26.101Z,63.00
2018-02-06T23:21:52.465Z,62.67
2018-02-06T23:24:18.861Z,55.47
2018-02-06T23:26:45.777Z,60.60
2018-02-06T23:29:12.320Z,51.40
2018-02-06T23:31:38.712Z,49.30
2018-02-06T23:34:05.170Z,48.60
2018-02-06T23:36:31.528Z,39.73
2018-02-06T23:38:57.913Z,37.43
2018-02-06T23:41:24.352Z,36.20
2018-02-06T23:43:50.781Z,37.10
2018-02-06T23:46:17.152Z,36.87
2018-02-06T23:48:43.624Z,36.00
2018-02-06T23:51:10.025Z,38.37
2018-02-06T23:53:36.408Z,42.47
2018-02-06T23:56:02.762Z,41.53
2018-02-06T23:58:29.241Z,38.83
